createdAt,value
2022-10-03T00:00:17.170Z,95011.31
2022-10-03T00:03:11.447Z,95017.06
2022-10-03T00:05:47.845Z,95013.28
2022-10-03T00:08:37.186Z,95010.84
2022-10-03T00:11:48.321Z,94994.06
2022-10-03T00:14:26.743Z,94999.69
2022-10-03T00:17:04.906Z,94993.94
2022-10-03T00:19:50.278Z,94975.34
2022-10-03T00:22:40.404Z,94986.53
2022-10-03T00:25:19.257Z,94981.84
2022-10-03T00:28:04.375Z,94979.41
2022-10-03T00:30:44.656Z,94978.81
2022-10-03T00:33:24.552Z,94977.63
2022-10-03T00:36:02.241Z,94993.34
2022-10-03T00:38:43.803Z,94981.97
2022-10-03T00:41:32.698Z,94979.41
2022-10-03T00:43:59.334Z,94992.56
2022-10-03T00:46:44.079Z,94979.41
2022-10-03T00:49:29.544Z,94999.53
2022-10-03T00:52:39.627Z,94984.09
2022-10-03T00:55:27.962Z,94987.13
2022-10-03T00:58:02.950Z,94981.09
2022-10-03T01:00:35.571Z,94979.59
2022-10-03T01:03:05.264Z,94968.53
2022-10-03T01:05:59.068Z,94971.13
2022-10-03T01:09:07.067Z,94972.00
2022-10-03T01:11:46.806Z,94979.56
2022-10-03T01:14:38.990Z,94945.53
2022-10-03T01:17:05.537Z,94976.81
2022-10-03T01:19:50.696Z,94965.00
2022-10-03T01:22:48.379Z,94956.56
2022-10-03T01:25:19.659Z,94959.72
2022-10-03T01:28:07.944Z,94952.81
2022-10-03T01:30:42.577Z,94963.69
2022-10-03T01:33:27.966Z,94954.16
2022-10-03T01:35:59.073Z,94964.28
2022-10-03T01:38:36.541Z,94962.34
2022-10-03T01:41:13.997Z,94966.44
2022-10-03T01:43:50.379Z,94962.34
2022-10-03T01:46:32.547Z,94954.19
2022-10-03T01:49:14.194Z,94955.69
2022-10-03T01:52:09.407Z,94920.47
2022-10-03T01:54:59.346Z,94956.31
2022-10-03T01:57:35.276Z,94957.81
2022-10-03T02:00:11.443Z,94946.00
2022-10-03T02:02:50.291Z,94948.91
2022-10-03T02:05:43.813Z,94943.16
2022-10-03T02:08:25.487Z,94941.50
2022-10-03T02:11:03.398Z,94944.06
2022-10-03T02:13:37.158Z,94951.16
2022-10-03T02:16:22.799Z,94945.41
2022-10-03T02:19:07.275Z,94945.56
2022-10-03T02:21:47.335Z,94947.97
2022-10-03T02:24:23.747Z,94953.38
2022-10-03T02:27:08.513Z,94950.34
2022-10-03T02:30:11.602Z,94949.63
2022-10-03T02:33:05.236Z,94933.41
2022-10-03T02:35:50.628Z,94961.19
2022-10-03T02:38:51.121Z,94953.75
2022-10-03T02:42:05.885Z,94958.91
2022-10-03T02:44:41.768Z,94955.94
2022-10-03T02:47:25.140Z,94968.06
2022-10-03T02:50:22.159Z,94965.81
2022-10-03T02:52:57.645Z,94962.66
2022-10-03T02:55:28.125Z,94963.69
2022-10-03T02:58:16.165Z,94964.81
2022-10-03T03:01:33.951Z,94960.94
2022-10-03T03:04:23.108Z,94959.09
2022-10-03T03:07:22.115Z,94961.94
2022-10-03T03:10:28.827Z,94965.22
2022-10-03T03:13:21.043Z,94950.03
2022-10-03T03:16:14.535Z,94957.56
2022-10-03T03:19:18.766Z,94948.50
2022-10-03T03:22:25.377Z,94945.06
2022-10-03T03:25:04.138Z,94953.09
2022-10-03T03:27:35.616Z,94944.16
2022-10-03T03:30:09.947Z,94920.16
2022-10-03T03:32:56.343Z,94949.63
2022-10-03T03:35:28.639Z,94933.16
2022-10-03T03:37:58.164Z,94936.03
2022-10-03T03:40:44.350Z,94943.16
2022-10-03T03:43:40.242Z,94936.03
2022-10-03T03:46:20.714Z,94924.69
2022-10-03T03:49:31.047Z,94924.53
2022-10-03T03:52:39.638Z,94928.47
2022-10-03T03:55:23.716Z,94920.91
2022-10-03T03:58:18.833Z,94921.97
2022-10-03T04:01:03.385Z,94922.75
2022-10-03T04:03:59.945Z,94925.63
2022-10-03T04:06:31.742Z,94919.44
2022-10-03T04:09:47.974Z,94918.97
2022-10-03T04:12:14.949Z,94905.66
2022-10-03T04:14:47.897Z,94913.06
2022-10-03T04:18:14.134Z,94915.78
2022-10-03T04:20:55.361Z,94901.59
2022-10-03T04:23:52.667Z,94907.63
2022-10-03T04:26:47.408Z,94908.84
2022-10-03T04:29:55.888Z,94916.84
2022-10-03T04:32:41.966Z,94908.97
2022-10-03T04:35:42.960Z,94898.69
2022-10-03T04:38:52.003Z,94908.06
2022-10-03T04:41:43.061Z,94921.81
2022-10-03T04:44:16.531Z,94918.34
2022-10-03T04:47:15.422Z,94898.69
2022-10-03T04:49:58.617Z,94910.63
2022-10-03T04:52:49.283Z,94918.22
2022-10-03T04:55:26.937Z,94907.31
2022-10-03T04:57:56.348Z,94906.69
2022-10-03T05:00:46.535Z,94905.81
2022-10-03T05:03:35.024Z,94907.13
2022-10-03T05:06:17.784Z,94898.69
2022-10-03T05:08:53.729Z,94888.09
2022-10-03T05:11:25.812Z,94894.88
2022-10-03T05:14:17.339Z,94911.78
2022-10-03T05:17:09.855Z,94904.06
2022-10-03T05:19:36.628Z,94913.25
2022-10-03T05:22:17.215Z,94902.34
2022-10-03T05:24:56.932Z,94891.88
2022-10-03T05:27:37.758Z,94891.84
2022-10-03T05:30:26.623Z,94878.94
2022-10-03T05:33:02.847Z,94877.63
2022-10-03T05:35:53.428Z,94877.19
2022-10-03T05:38:51.090Z,94871.22
2022-10-03T05:41:25.176Z,94887.16
2022-10-03T05:44:01.791Z,94865.31
2022-10-03T05:46:39.632Z,94886.41
2022-10-03T05:49:28.066Z,94881.34
2022-10-03T05:52:15.067Z,94877.78
2022-10-03T05:54:45.838Z,94885.31
2022-10-03T05:57:44.033Z,94894.91
2022-10-03T06:00:35.945Z,94885.53
2022-10-03T06:03:12.426Z,94898.81
2022-10-03T06:06:09.059Z,94889.91
2022-10-03T06:09:03.457Z,94893.94
2022-10-03T06:12:02.538Z,94902.00
2022-10-03T06:14:50.540Z,94913.72
2022-10-03T06:17:39.776Z,94914.38
2022-10-03T06:20:09.602Z,94908.72
2022-10-03T06:23:06.831Z,94915.94
2022-10-03T06:25:42.353Z,94906.28
2022-10-03T06:28:38.517Z,94904.44
2022-10-03T06:31:31.175Z,94906.56
2022-10-03T06:34:36.175Z,94906.72
2022-10-03T06:37:27.146Z,94920.34
2022-10-03T06:40:31.482Z,94925.56
2022-10-03T06:43:17.267Z,94902.41
2022-10-03T06:46:16.193Z,94920.06
2022-10-03T06:49:04.618Z,94913.53
2022-10-03T06:51:56.246Z,94922.16
2022-10-03T06:54:31.934Z,94931.31
2022-10-03T06:57:04.642Z,94936.22
2022-10-03T07:00:02.245Z,94943.34
2022-10-03T07:02:38.268Z,94950.16
2022-10-03T07:05:20.148Z,94947.88
2022-10-03T07:08:14.677Z,94967.16
2022-10-03T07:11:14.765Z,94971.09
2022-10-03T07:14:12.251Z,94982.75
2022-10-03T07:16:43.835Z,94993.16
2022-10-03T07:19:34.981Z,94992.34
2022-10-03T07:22:40.394Z,94994.16
2022-10-03T07:25:27.621Z,94996.03
2022-10-03T07:28:22.222Z,95002.44
2022-10-03T07:31:09.466Z,94999.44
2022-10-03T07:33:50.591Z,95002.06
2022-10-03T07:36:44.912Z,95011.09
2022-10-03T07:39:36.107Z,95007.91
2022-10-03T07:42:12.230Z,95014.75
2022-10-03T07:44:57.678Z,95014.53
2022-10-03T07:47:36.274Z,95013.63
2022-10-03T07:50:44.967Z,95006.88
2022-10-03T07:53:33.857Z,95020.28
2022-10-03T07:56:35.741Z,95012.09
2022-10-03T07:59:21.246Z,95015.22
2022-10-03T08:02:11.203Z,95017.25
2022-10-03T08:05:05.476Z,95013.78
2022-10-03T08:08:10.846Z,95016.25
2022-10-03T08:10:56.185Z,95028.63
2022-10-03T08:13:44.599Z,95035.38
2022-10-03T08:16:39.330Z,95020.47
2022-10-03T08:19:17.457Z,95034.78
2022-10-03T08:22:20.263Z,95038.84
2022-10-03T08:25:21.467Z,95021.78
2022-10-03T08:28:16.847Z,95035.63
2022-10-03T08:31:05.792Z,95036.59
2022-10-03T08:33:57.027Z,95040.19
2022-10-03T08:36:42.626Z,95040.66
2022-10-03T08:39:14.164Z,95027.91
2022-10-03T08:41:41.273Z,95043.16
2022-10-03T08:44:37.111Z,95036.50
2022-10-03T08:47:21.070Z,95035.28
2022-10-03T08:50:06.360Z,95043.28
2022-10-03T08:52:32.924Z,95037.75
2022-10-03T08:55:19.862Z,95038.66
2022-10-03T08:58:28.275Z,95050.38
2022-10-03T09:01:13.355Z,95044.69
2022-10-03T09:04:22.199Z,95025.50
2022-10-03T09:07:17.123Z,95037.19
2022-10-03T09:10:07.759Z,95046.84
2022-10-03T09:12:58.176Z,95042.06
2022-10-03T09:15:58.501Z,95051.25
2022-10-03T09:19:03.362Z,95044.31
2022-10-03T09:21:39.577Z,95027.28
2022-10-03T09:24:20.636Z,95052.28
2022-10-03T09:27:20.504Z,95058.97
2022-10-03T09:30:24.757Z,95026.94
2022-10-03T09:32:57.097Z,95049.19
2022-10-03T09:35:45.442Z,95050.09
2022-10-03T09:38:12.091Z,95048.25
2022-10-03T09:40:53.779Z,95057.63
2022-10-03T09:43:45.000Z,95050.84
2022-10-03T09:46:26.861Z,95057.75
2022-10-03T09:49:15.464Z,95067.56
2022-10-03T09:52:05.522Z,95063.00
2022-10-03T09:54:51.800Z,95055.34
2022-10-03T09:57:23.018Z,95055.56
2022-10-03T10:00:35.822Z,95051.72
2022-10-03T10:03:25.896Z,95043.38
2022-10-03T10:06:07.064Z,95027.91
2022-10-03T10:08:33.630Z,95034.47
2022-10-03T10:11:20.077Z,95034.88
2022-10-03T10:14:14.784Z,95041.03
2022-10-03T10:17:00.109Z,95034.56
2022-10-03T10:19:29.501Z,95036.00
2022-10-03T10:22:14.721Z,95040.16
2022-10-03T10:24:50.805Z,95028.88
2022-10-03T10:28:02.387Z,95037.75
2022-10-03T10:30:45.822Z,95045.69
2022-10-03T10:33:36.934Z,95047.91
2022-10-03T10:36:34.355Z,95047.59
2022-10-03T10:39:14.237Z,95044.56
2022-10-03T10:41:46.588Z,95053.47
2022-10-03T10:44:46.937Z,95051.72
2022-10-03T10:47:27.494Z,95047.28
2022-10-03T10:50:50.647Z,95050.66
2022-10-03T10:54:14.649Z,95045.00
2022-10-03T10:57:09.652Z,95039.09
2022-10-03T10:59:48.251Z,95049.72
2022-10-03T11:02:39.676Z,95047.81
2022-10-03T11:05:35.061Z,95062.91
2022-10-03T11:08:35.620Z,95045.09
2022-10-03T11:11:11.178Z,95047.66
2022-10-03T11:13:43.842Z,95045.09
2022-10-03T11:16:56.236Z,95048.38
2022-10-03T11:19:43.666Z,95052.22
2022-10-03T11:22:44.539Z,95036.72
2022-10-03T11:25:41.302Z,95040.06
2022-10-03T11:28:08.161Z,95023.97
2022-10-03T11:31:12.218Z,95038.28
2022-10-03T11:34:26.509Z,95033.91
2022-10-03T11:37:17.668Z,95032.81
2022-10-03T11:40:19.696Z,95010.84
2022-10-03T11:43:23.679Z,95024.69
2022-10-03T11:46:08.767Z,95030.88
2022-10-03T11:48:41.413Z,95033.75
2022-10-03T11:51:10.792Z,95019.88
2022-10-03T11:54:07.623Z,95033.94
2022-10-03T11:56:47.936Z,95039.19
2022-10-03T11:59:45.636Z,95029.69
2022-10-03T12:02:21.025Z,94980.91
2022-10-03T12:04:59.651Z,95011.44
2022-10-03T12:08:14.376Z,95017.50
2022-10-03T12:11:19.312Z,95017.34
2022-10-03T12:14:16.293Z,95019.28
2022-10-03T12:16:57.741Z,95028.88
2022-10-03T12:19:46.219Z,95016.72
2022-10-03T12:22:25.341Z,95019.38
2022-10-03T12:24:59.065Z,95016.47
2022-10-03T12:27:47.353Z,95019.63
2022-10-03T12:30:17.112Z,95011.75
2022-10-03T12:33:08.006Z,95013.75
2022-10-03T12:35:50.728Z,95010.88
2022-10-03T12:38:52.669Z,95003.69
2022-10-03T12:41:33.761Z,95005.81
2022-10-03T12:44:22.031Z,94992.69
2022-10-03T12:47:07.681Z,95003.44
2022-10-03T12:50:07.009Z,95004.09
2022-10-03T12:52:57.608Z,94998.03
2022-10-03T12:55:32.400Z,95006.41
2022-10-03T12:58:15.060Z,94998.41
2022-10-03T13:00:45.751Z,94990.41
2022-10-03T13:03:21.188Z,94994.13
2022-10-03T13:06:09.044Z,95007.63
2022-10-03T13:09:03.770Z,94994.50
2022-10-03T13:12:26.836Z,95002.16
2022-10-03T13:15:29.535Z,95002.25
2022-10-03T13:18:01.910Z,94984.91
2022-10-03T13:20:37.243Z,94995.16
2022-10-03T13:23:14.725Z,95005.06
2022-10-03T13:26:18.456Z,95017.28
2022-10-03T13:28:53.882Z,95014.25
2022-10-03T13:31:28.749Z,95016.38
2022-10-03T13:34:01.201Z,95001.16
2022-10-03T13:36:39.959Z,95005.91
2022-10-03T13:39:23.886Z,95026.28
2022-10-03T13:42:15.687Z,95009.78
2022-10-03T13:44:50.347Z,95012.03
2022-10-03T13:47:32.153Z,95015.59
2022-10-03T13:50:15.420Z,95018.59
2022-10-03T13:53:03.757Z,95010.06
2022-10-03T13:55:42.345Z,95006.78
2022-10-03T13:58:23.325Z,94989.19
2022-10-03T14:01:02.411Z,94999.00
2022-10-03T14:03:49.019Z,94971.59
2022-10-03T14:06:51.549Z,94962.13
2022-10-03T14:09:17.998Z,94974.97
2022-10-03T14:12:16.035Z,94974.03
2022-10-03T14:14:56.878Z,94976.28
2022-10-03T14:18:00.776Z,94976.97
2022-10-03T14:20:34.672Z,95010.22
2022-10-03T14:23:22.020Z,95005.59
2022-10-03T14:26:05.024Z,95011.94
2022-10-03T14:28:37.852Z,95014.16
2022-10-03T14:31:24.236Z,95010.06
2022-10-03T14:34:26.044Z,94988.88
2022-10-03T14:37:38.265Z,95014.88
2022-10-03T14:40:32.907Z,95011.13
2022-10-03T14:43:08.846Z,95043.88
2022-10-03T14:45:45.489Z,95017.16
2022-10-03T14:48:22.730Z,95057.56
2022-10-03T14:50:52.645Z,95055.50
2022-10-03T14:53:25.418Z,95047.41
2022-10-03T14:55:51.985Z,95044.00
2022-10-03T14:58:21.218Z,95050.16
2022-10-03T15:00:55.486Z,95044.19
2022-10-03T15:03:29.121Z,95040.91
2022-10-03T15:06:03.240Z,95057.50
2022-10-03T15:08:43.276Z,95034.09
2022-10-03T15:11:14.001Z,95053.72
2022-10-03T15:13:51.050Z,95061.13
2022-10-03T15:16:22.238Z,95041.75
2022-10-03T15:18:56.635Z,95045.91
2022-10-03T15:21:26.246Z,95056.72
2022-10-03T15:24:03.960Z,95055.44
2022-10-03T15:26:36.293Z,95017.91
2022-10-03T15:29:06.380Z,95033.91
2022-10-03T15:31:40.695Z,95014.09
2022-10-03T15:34:17.812Z,95006.59
2022-10-03T15:36:50.050Z,95050.16
2022-10-03T15:39:23.295Z,95045.50
2022-10-03T15:42:01.376Z,95045.63
2022-10-03T15:44:39.672Z,95056.69
2022-10-03T15:47:09.160Z,95063.47
2022-10-03T15:49:40.254Z,95066.75
2022-10-03T15:52:16.541Z,95071.38
2022-10-03T15:55:10.961Z,95054.84
2022-10-03T15:57:44.303Z,95069.75
2022-10-03T16:00:20.092Z,95081.25
2022-10-03T16:02:53.221Z,95067.25
2022-10-03T16:05:25.620Z,95061.84
2022-10-03T16:07:58.926Z,95081.50
2022-10-03T16:10:29.545Z,95083.97
2022-10-03T16:12:59.621Z,95073.88
2022-10-03T16:15:49.415Z,95084.72
2022-10-03T16:18:18.710Z,95083.97
2022-10-03T16:20:56.958Z,95077.81
2022-10-03T16:23:34.529Z,95089.78
2022-10-03T16:26:23.614Z,95111.44
2022-10-03T16:28:50.816Z,95126.34
2022-10-03T16:31:28.933Z,95115.13
2022-10-03T16:34:02.997Z,95109.47
2022-10-03T16:36:33.473Z,95119.28
2022-10-03T16:39:04.781Z,95103.94
2022-10-03T16:41:44.033Z,95124.13
2022-10-03T16:44:41.184Z,95128.88
2022-10-03T16:47:09.705Z,95109.69
2022-10-03T16:50:12.609Z,95133.16
2022-10-03T16:52:40.798Z,95132.94
2022-10-03T16:55:34.955Z,95155.28
2022-10-03T16:58:10.117Z,95138.38
2022-10-03T17:01:25.435Z,95155.66
2022-10-03T17:03:50.247Z,95156.84
2022-10-03T17:06:28.757Z,95158.25
2022-10-03T17:08:59.318Z,95151.56
2022-10-03T17:11:28.816Z,95156.16
2022-10-03T17:13:59.879Z,95147.66
2022-10-03T17:16:34.159Z,95155.03
2022-10-03T17:19:01.097Z,95165.63
2022-10-03T17:21:31.197Z,95152.34
2022-10-03T17:24:03.662Z,95157.03
2022-10-03T17:26:35.971Z,95159.06
2022-10-03T17:29:19.388Z,95165.13
2022-10-03T17:32:03.511Z,95168.66
2022-10-03T17:34:39.279Z,95155.34
2022-10-03T17:37:34.788Z,95170.53
2022-10-03T17:40:44.231Z,95132.84
2022-10-03T17:43:21.649Z,95161.44
2022-10-03T17:46:27.665Z,95158.41
2022-10-03T17:49:26.651Z,95165.53
2022-10-03T17:51:55.518Z,95176.88
2022-10-03T17:54:33.489Z,95171.31
2022-10-03T17:57:11.048Z,95163.72
2022-10-03T17:59:50.661Z,95168.56
2022-10-03T18:02:33.833Z,95153.88
2022-10-03T18:05:13.092Z,95157.34
2022-10-03T18:07:43.398Z,95156.00
2022-10-03T18:10:24.699Z,95152.03
2022-10-03T18:12:56.281Z,95163.97
2022-10-03T18:15:55.188Z,95169.56
2022-10-03T18:19:03.630Z,95164.88
2022-10-03T18:21:49.085Z,95156.97
2022-10-03T18:24:31.220Z,95179.09
2022-10-03T18:27:03.476Z,95185.63
2022-10-03T18:29:36.878Z,95195.44
2022-10-03T18:32:23.289Z,95185.91
2022-10-03T18:35:15.280Z,95191.19
2022-10-03T18:37:44.992Z,95194.66
2022-10-03T18:40:25.033Z,95207.06
2022-10-03T18:42:52.147Z,95199.19
2022-10-03T18:45:44.901Z,95199.53
2022-10-03T18:48:27.337Z,95202.13
2022-10-03T18:51:03.160Z,95205.47
2022-10-03T18:53:37.294Z,95206.38
2022-10-03T18:56:12.286Z,95217.47
2022-10-03T18:58:46.451Z,95215.94
2022-10-03T19:01:38.623Z,95214.91
2022-10-03T19:04:10.301Z,95215.78
2022-10-03T19:06:45.081Z,95206.41
2022-10-03T19:09:20.194Z,95212.63
2022-10-03T19:11:50.947Z,95208.25
2022-10-03T19:14:22.889Z,95209.94
2022-10-03T19:17:11.734Z,95206.88
2022-10-03T19:19:44.594Z,95211.72
2022-10-03T19:22:18.484Z,95126.75
2022-10-03T19:24:59.374Z,95202.19
2022-10-03T19:27:51.647Z,95207.34
2022-10-03T19:30:24.850Z,95205.22
2022-10-03T19:33:09.235Z,95211.28
2022-10-03T19:35:41.481Z,95206.88
2022-10-03T19:38:37.489Z,95218.41
2022-10-03T19:41:18.325Z,95224.59
2022-10-03T19:43:49.601Z,95223.22
2022-10-03T19:46:22.715Z,95223.69
2022-10-03T19:48:58.653Z,95226.28
2022-10-03T19:51:27.393Z,95218.09
2022-10-03T19:53:57.789Z,95211.44
2022-10-03T19:56:27.456Z,95219.91
2022-10-03T19:59:06.900Z,95204.28
2022-10-03T20:01:45.108Z,95206.25
2022-10-03T20:04:17.794Z,95218.06
2022-10-03T20:06:51.093Z,95221.81
2022-10-03T20:09:28.799Z,95230.16
2022-10-03T20:12:03.889Z,95220.59
2022-10-03T20:14:36.282Z,95221.66
2022-10-03T20:17:14.222Z,95222.38
2022-10-03T20:19:55.295Z,95221.31
2022-10-03T20:22:34.405Z,95213.41
2022-10-03T20:25:01.518Z,95226.59
2022-10-03T20:27:43.255Z,95216.44
2022-10-03T20:30:36.914Z,95211.78
2022-10-03T20:33:05.036Z,95211.19
2022-10-03T20:35:50.252Z,95210.56
2022-10-03T20:38:25.937Z,95211.06
2022-10-03T20:41:01.263Z,95218.88
2022-10-03T20:43:41.251Z,95218.00
2022-10-03T20:46:09.248Z,95224.31
2022-10-03T20:48:40.996Z,95221.75
2022-10-03T20:51:21.247Z,95205.22
2022-10-03T20:53:53.240Z,95204.75
2022-10-03T20:56:29.334Z,95215.47
2022-10-03T20:58:58.224Z,95232.09
2022-10-03T21:01:28.690Z,95224.38
2022-10-03T21:04:05.176Z,95241.47
2022-10-03T21:06:51.976Z,95233.44
2022-10-03T21:09:21.803Z,95241.72
2022-10-03T21:11:54.561Z,95241.72
2022-10-03T21:14:25.822Z,95247.44
2022-10-03T21:16:53.815Z,95248.81
2022-10-03T21:19:32.556Z,95251.69
2022-10-03T21:22:02.919Z,95251.16
2022-10-03T21:25:03.259Z,95242.94
2022-10-03T21:27:33.436Z,95257.59
2022-10-03T21:30:14.366Z,95251.72
2022-10-03T21:32:56.393Z,95242.19
2022-10-03T21:35:41.707Z,95245.38
2022-10-03T21:38:09.001Z,95259.06
2022-10-03T21:40:42.106Z,95256.03
2022-10-03T21:43:18.072Z,95258.50
2022-10-03T21:45:50.406Z,95255.03
2022-10-03T21:48:44.429Z,95256.09
2022-10-03T21:51:45.400Z,95252.50
2022-10-03T21:54:23.991Z,95238.09
2022-10-03T21:57:34.162Z,95241.06
2022-10-03T22:00:11.040Z,95257.88
2022-10-03T22:02:56.813Z,95249.31
2022-10-03T22:05:34.387Z,95245.09
2022-10-03T22:08:13.691Z,95253.88
2022-10-03T22:10:53.068Z,95251.78
2022-10-03T22:13:25.052Z,95262.84
2022-10-03T22:16:10.523Z,95257.13
2022-10-03T22:19:22.553Z,95248.72
2022-10-03T22:22:07.914Z,95249.16
2022-10-03T22:25:20.886Z,95250.56
2022-10-03T22:27:56.960Z,95245.69
2022-10-03T22:30:23.798Z,95243.25
2022-10-03T22:33:15.241Z,95248.25
2022-10-03T22:35:59.638Z,95245.28
2022-10-03T22:38:32.917Z,95245.56
2022-10-03T22:41:03.779Z,95235.84
2022-10-03T22:43:31.005Z,95244.47
2022-10-03T22:45:59.184Z,95248.00
2022-10-03T22:48:31.184Z,95239.50
2022-10-03T22:50:59.056Z,95241.75
2022-10-03T22:53:31.127Z,95241.72
2022-10-03T22:55:59.742Z,95234.59
2022-10-03T22:58:29.174Z,95248.41
2022-10-03T23:00:59.625Z,95244.19
2022-10-03T23:03:31.068Z,95237.81
2022-10-03T23:06:09.930Z,95248.59
2022-10-03T23:09:12.174Z,95251.47
2022-10-03T23:11:40.986Z,95240.09
2022-10-03T23:14:33.600Z,95240.50
2022-10-03T23:17:09.343Z,95241.56
2022-10-03T23:20:19.953Z,95204.59
2022-10-03T23:22:50.721Z,95231.75
2022-10-03T23:25:24.215Z,95231.44
2022-10-03T23:27:50.808Z,95242.06
2022-10-03T23:30:17.373Z,95237.84
2022-10-03T23:32:46.984Z,95243.25
2022-10-03T23:35:20.353Z,95240.84
2022-10-03T23:37:48.858Z,95238.69
2022-10-03T23:40:37.199Z,95228.75
2022-10-03T23:43:28.147Z,95232.81
2022-10-03T23:46:00.555Z,95234.59
2022-10-03T23:48:30.740Z,95235.63
2022-10-03T23:51:01.292Z,95237.59
2022-10-03T23:53:33.767Z,95240.03
2022-10-03T23:56:03.174Z,95222.16
2022-10-03T23:58:32.841Z,95229.72
